Time;durP1;ratioP1;P1;durP2;ratioP2;P2;SDS_P1;SDS_P2;PMS_P1;PMS_P2;Temp;Humidity;BMP_temperature;BMP_pressure;BME280_temperature;BME280_humidity;BME280_pressure;Samples;Min_cycle;Max_cycle;Signal;HPM_P1;HPM_P2
2020/12/06 00:01:07;;;;;;;3.13;0.70;;;6.10;99.90;;;;;;5090378;28;20615;-72
2020/12/06 00:03:36;;;;;;;0.57;0.57;;;5.90;99.90;;;;;;5090274;28;20213;-71
2020/12/06 00:06:03;;;;;;;1.27;0.77;;;5.90;99.90;;;;;;5090176;28;20212;-71
2020/12/06 00:08:29;;;;;;;0.77;0.60;;;5.80;99.90;;;;;;5090184;28;20669;-70
2020/12/06 00:10:56;;;;;;;1.40;0.40;;;5.80;99.90;;;;;;5090217;28;20238;-72
2020/12/06 00:13:23;;;;;;;1.80;0.50;;;5.80;99.90;;;;;;5090419;28;20276;-72
2020/12/06 00:15:50;;;;;;;0.37;0.37;;;5.70;99.90;;;;;;5089927;28;20693;-71
2020/12/06 00:18:17;;;;;;;0.70;0.40;;;5.70;99.90;;;;;;5090108;28;20730;-72
2020/12/06 00:20:43;;;;;;;1.07;0.60;;;5.60;99.90;;;;;;5090429;28;20669;-71
2020/12/06 00:23:11;;;;;;;0.27;0.27;;;5.60;99.90;;;;;;5090015;28;20221;-71
2020/12/06 00:25:37;;;;;;;0.57;0.40;;;5.60;99.90;;;;;;5090129;28;20627;-71
2020/12/06 00:28:05;;;;;;;1.03;0.60;;;5.50;99.90;;;;;;5090249;28;20286;-73
2020/12/06 00:30:31;;;;;;;0.47;0.47;;;5.70;99.90;;;;;;5090647;28;20259;-72
2020/12/06 00:32:57;;;;;;;0.37;0.37;;;5.70;99.90;;;;;;5089488;28;20568;-73
2020/12/06 00:35:24;;;;;;;0.40;0.30;;;5.70;99.90;;;;;;5090530;28;20235;-71
2020/12/06 00:37:50;;;;;;;0.63;0.63;;;5.70;99.90;;;;;;5089434;28;20205;-72
2020/12/06 00:40:17;;;;;;;0.30;0.30;;;5.70;99.90;;;;;;5090674;28;20206;-73
2020/12/06 00:42:43;;;;;;;0.47;0.33;;;5.70;99.90;;;;;;5090423;28;20738;-72
2020/12/06 00:45:10;;;;;;;0.30;0.30;;;5.80;99.90;;;;;;5090067;28;20290;-72
2020/12/06 00:47:37;;;;;;;0.50;0.20;;;5.80;99.90;;;;;;5089726;28;20672;-73
2020/12/06 00:50:05;;;;;;;0.30;0.30;;;5.80;99.90;;;;;;5089669;28;20229;-72
2020/12/06 00:52:32;;;;;;;0.90;0.40;;;5.90;99.90;;;;;;5091141;28;20233;-72
2020/12/06 00:54:58;;;;;;;0.97;0.40;;;5.90;99.90;;;;;;5093439;28;20639;-73
2020/12/06 00:57:25;;;;;;;1.47;0.60;;;5.90;99.90;;;;;;5094360;28;20237;-72
2020/12/06 00:59:51;;;;;;;1.33;0.43;;;5.90;99.90;;;;;;5093678;28;20258;-71
2020/12/06 01:02:18;;;;;;;0.67;0.27;;;5.90;99.90;;;;;;5093788;28;20579;-68
2020/12/06 01:04:45;;;;;;;0.60;0.40;;;6.00;99.90;;;;;;5093875;28;20247;-68
2020/12/06 01:07:12;;;;;;;0.37;0.20;;;5.90;99.90;;;;;;5094054;28;20205;-70
2020/12/06 01:09:38;;;;;;;0.70;0.33;;;5.90;99.90;;;;;;5094125;28;20209;-70
2020/12/06 01:12:05;;;;;;;1.13;0.30;;;5.90;99.90;;;;;;5093141;28;20726;-70
2020/12/06 01:14:31;;;;;;;0.83;0.57;;;6.00;99.90;;;;;;5093648;28;20263;-70
2020/12/06 01:16:57;;;;;;;0.50;0.30;;;6.00;99.90;;;;;;5092865;28;20210;-69
2020/12/06 01:19:25;;;;;;;0.43;0.20;;;6.00;99.90;;;;;;5093618;28;20232;-70
2020/12/06 01:21:52;;;;;;;0.50;0.50;;;6.10;99.90;;;;;;5093438;28;20201;-70
2020/12/06 01:24:18;;;;;;;1.27;0.30;;;6.10;99.90;;;;;;5093211;28;20267;-69
2020/12/06 01:26:48;;;;;;;0.30;0.30;;;6.00;99.90;;;;;;5093968;28;20236;-70
2020/12/06 01:29:15;;;;;;;0.50;0.30;;;5.90;99.90;;;;;;5093780;28;20271;-70
2020/12/06 01:31:45;;;;;;;1.43;0.20;;;5.90;99.90;;;;;;5093657;28;20205;-70
2020/12/06 01:34:12;;;;;;;1.40;0.47;;;6.00;99.90;;;;;;5092936;28;20248;-72
2020/12/06 01:36:39;;;;;;;0.90;0.37;;;6.10;99.90;;;;;;5093427;28;20553;-74
2020/12/06 01:39:06;;;;;;;0.90;0.30;;;6.10;99.90;;;;;;5092878;28;20213;-75
2020/12/06 01:41:33;;;;;;;0.73;0.40;;;6.20;99.90;;;;;;5093455;28;20197;-74
2020/12/06 01:44:00;;;;;;;0.97;0.20;;;6.20;99.90;;;;;;5093039;28;20210;-73
2020/12/06 01:46:27;;;;;;;0.40;0.30;;;6.20;99.90;;;;;;5092822;28;20198;-73
2020/12/06 01:48:54;;;;;;;0.40;0.30;;;6.20;99.90;;;;;;5092952;28;20209;-72
2020/12/06 01:51:23;;;;;;;0.50;0.33;;;6.20;99.90;;;;;;5092752;28;20254;-71
2020/12/06 01:53:51;;;;;;;0.37;0.30;;;6.20;99.90;;;;;;5092487;28;20801;-71
2020/12/06 01:56:19;;;;;;;1.27;0.40;;;6.20;99.90;;;;;;5092789;28;20201;-72
2020/12/06 01:58:45;;;;;;;1.50;0.40;;;6.20;99.90;;;;;;5093242;28;20209;-68
2020/12/06 02:01:12;;;;;;;0.87;0.40;;;6.20;99.90;;;;;;5092545;28;20209;-69
2020/12/06 02:03:39;;;;;;;0.73;0.43;;;6.20;99.90;;;;;;5092542;28;20673;-70
2020/12/06 02:06:06;;;;;;;0.67;0.40;;;6.20;99.90;;;;;;5092686;28;20209;-70
2020/12/06 02:08:33;;;;;;;0.30;0.23;;;6.20;99.90;;;;;;5092341;28;20731;-69
2020/12/06 02:11:00;;;;;;;1.63;0.40;;;6.20;99.90;;;;;;5092312;28;20205;-71
2020/12/06 02:13:27;;;;;;;0.20;0.20;;;6.20;99.90;;;;;;5092231;28;20229;-71
2020/12/06 02:15:54;;;;;;;0.57;0.10;;;6.20;99.90;;;;;;5092077;28;20262;-75
2020/12/06 02:18:22;;;;;;;0.50;0.27;;;6.20;99.90;;;;;;5092572;28;20205;-74
2020/12/06 02:20:49;;;;;;;1.27;0.40;;;6.10;99.90;;;;;;5091736;28;20737;-71
2020/12/06 02:23:16;;;;;;;0.50;0.33;;;6.10;99.90;;;;;;5092641;28;20217;-68
2020/12/06 02:25:42;;;;;;;0.20;0.20;;;6.00;99.90;;;;;;5092697;28;20288;-70
2020/12/06 02:28:09;;;;;;;1.73;0.43;;;6.00;99.90;;;;;;5091722;28;20270;-70
2020/12/06 02:30:36;;;;;;;0.40;0.30;;;6.00;99.90;;;;;;5092107;28;20263;-70
2020/12/06 02:33:04;;;;;;;0.20;0.20;;;6.00;99.90;;;;;;5091707;28;20256;-71
2020/12/06 02:35:31;;;;;;;0.20;0.20;;;6.00;99.90;;;;;;5092341;28;20593;-71
2020/12/06 02:37:58;;;;;;;0.10;0.10;;;6.00;99.90;;;;;;5091555;28;20665;-72
2020/12/06 02:40:25;;;;;;;1.13;0.30;;;6.00;99.90;;;;;;5092021;28;20213;-71
2020/12/06 02:42:51;;;;;;;0.33;0.30;;;6.00;99.90;;;;;;5091461;28;20279;-71
2020/12/06 02:45:18;;;;;;;0.50;0.20;;;6.00;99.90;;;;;;5091900;28;20307;-74
2020/12/06 02:47:44;;;;;;;0.30;0.20;;;6.00;99.90;;;;;;5092279;28;20239;-74
2020/12/06 02:50:11;;;;;;;0.30;0.30;;;5.90;99.90;;;;;;5092223;28;20201;-74
2020/12/06 02:52:37;;;;;;;0.60;0.40;;;5.90;99.90;;;;;;5091705;28;20266;-72
2020/12/06 02:55:04;;;;;;;0.70;0.40;;;5.90;99.90;;;;;;5091353;28;20229;-74
2020/12/06 02:57:31;;;;;;;0.73;0.20;;;5.90;99.90;;;;;;5091517;28;20681;-72
2020/12/06 02:59:57;;;;;;;1.27;0.30;;;5.90;99.90;;;;;;5091290;28;20251;-73
2020/12/06 03:02:24;;;;;;;0.60;0.40;;;5.90;99.90;;;;;;5092009;28;20201;-75
2020/12/06 03:04:50;;;;;;;1.53;0.20;;;5.90;99.90;;;;;;5091278;28;20201;-75
2020/12/06 03:07:16;;;;;;;1.33;0.33;;;5.90;99.90;;;;;;5091585;28;20722;-72
2020/12/06 03:09:43;;;;;;;0.50;0.20;;;5.90;99.90;;;;;;5091808;28;20255;-70
2020/12/06 03:12:10;;;;;;;0.10;0.10;;;5.90;99.90;;;;;;5091270;28;20198;-71
2020/12/06 03:14:37;;;;;;;1.23;0.30;;;5.90;99.90;;;;;;5091160;28;20209;-71
2020/12/06 03:17:03;;;;;;;0.30;0.30;;;5.90;99.90;;;;;;5090287;28;20232;-70
2020/12/06 03:19:30;;;;;;;0.23;0.23;;;6.00;99.90;;;;;;5091339;28;20217;-70
2020/12/06 03:21:56;;;;;;;1.10;0.30;;;6.00;99.90;;;;;;5090900;28;20213;-71
2020/12/06 03:24:24;;;;;;;0.40;0.20;;;6.00;99.90;;;;;;5090880;28;20672;-71
2020/12/06 03:26:50;;;;;;;0.33;0.30;;;6.00;99.90;;;;;;5090955;28;20212;-77
2020/12/06 03:29:18;;;;;;;0.70;0.37;;;6.00;99.90;;;;;;5091131;28;20201;-76
2020/12/06 03:31:44;;;;;;;0.63;0.30;;;6.00;99.90;;;;;;5091744;28;20205;-76
2020/12/06 03:34:10;;;;;;;0.87;0.53;;;6.00;99.90;;;;;;5075284;28;20237;-77
2020/12/06 03:36:37;;;;;;;0.73;0.40;;;5.90;99.90;;;;;;5091156;28;20255;-76
2020/12/06 03:39:03;;;;;;;0.50;0.20;;;6.00;99.90;;;;;;5090719;28;20205;-73
2020/12/06 03:41:30;;;;;;;0.30;0.20;;;6.00;99.90;;;;;;5090822;28;20248;-76
2020/12/06 03:43:56;;;;;;;0.40;0.20;;;5.90;99.90;;;;;;5090541;28;20216;-76
2020/12/06 03:46:23;;;;;;;1.03;0.20;;;6.00;99.90;;;;;;5090990;28;20569;-77
2020/12/06 03:48:50;;;;;;;0.33;0.20;;;6.00;99.90;;;;;;5090462;28;20271;-75
2020/12/06 03:51:16;;;;;;;0.47;0.30;;;6.00;99.90;;;;;;5090536;28;20737;-76
2020/12/06 03:53:43;;;;;;;0.40;0.20;;;6.00;99.90;;;;;;5090992;28;20273;-77
2020/12/06 03:56:09;;;;;;;0.57;0.23;;;6.10;99.90;;;;;;5090070;28;20632;-75
2020/12/06 03:58:36;;;;;;;0.27;0.20;;;6.00;99.90;;;;;;5091020;28;20218;-76
2020/12/06 04:01:02;;;;;;;1.40;0.43;;;6.00;99.90;;;;;;5090033;28;20209;-76
2020/12/06 04:03:29;;;;;;;0.20;0.20;;;6.00;99.90;;;;;;5090847;28;20206;-74
2020/12/06 04:05:56;;;;;;;0.40;0.40;;;6.00;99.90;;;;;;5089998;28;20210;-75
2020/12/06 04:08:22;;;;;;;1.47;0.50;;;6.00;99.90;;;;;;5090689;28;20201;-72
2020/12/06 04:10:48;;;;;;;0.33;0.20;;;6.00;99.90;;;;;;5090244;28;20223;-71
2020/12/06 04:13:15;;;;;;;0.23;0.23;;;5.90;99.90;;;;;;5090500;28;20256;-70
2020/12/06 04:15:41;;;;;;;0.20;0.20;;;6.00;99.90;;;;;;5090872;28;20235;-69
2020/12/06 04:18:08;;;;;;;0.60;0.40;;;6.00;99.90;;;;;;5090174;28;20262;-69
2020/12/06 04:20:35;;;;;;;0.30;0.20;;;6.00;99.90;;;;;;5090556;28;20270;-69
2020/12/06 04:23:01;;;;;;;0.37;0.30;;;6.00;99.90;;;;;;5090114;28;20201;-69
2020/12/06 04:25:28;;;;;;;0.37;0.30;;;5.90;99.90;;;;;;5090555;28;20197;-69
2020/12/06 04:27:54;;;;;;;0.47;0.20;;;5.90;99.90;;;;;;5093470;28;20266;-69
2020/12/06 04:30:21;;;;;;;0.97;0.53;;;5.80;99.90;;;;;;5094725;28;20308;-69
2020/12/06 04:32:47;;;;;;;0.50;0.30;;;5.80;99.90;;;;;;5094238;28;20287;-68
2020/12/06 04:35:13;;;;;;;0.33;0.20;;;5.90;99.90;;;;;;5094693;28;20205;-69
2020/12/06 04:37:41;;;;;;;0.17;0.10;;;5.90;99.90;;;;;;5094638;28;20231;-71
2020/12/06 04:40:07;;;;;;;0.57;0.23;;;6.00;99.90;;;;;;5093553;28;21102;-73
2020/12/06 04:42:34;;;;;;;0.93;0.30;;;6.00;99.90;;;;;;5094256;28;20730;-73
2020/12/06 04:45:01;;;;;;;0.80;0.20;;;6.00;99.90;;;;;;5094207;28;20250;-74
2020/12/06 04:47:41;;;;;;;2.00;0.30;;;6.00;99.90;;;;;;5094188;28;20282;-75
2020/12/06 04:50:11;;;;;;;0.40;0.40;;;6.10;99.90;;;;;;5094043;28;20213;-70
2020/12/06 04:52:45;;;;;;;0.83;0.67;;;6.10;99.90;;;;;;5094033;28;20217;-70
2020/12/06 04:55:16;;;;;;;0.30;0.30;;;6.10;99.90;;;;;;5094175;28;20202;-71
2020/12/06 04:57:45;;;;;;;0.73;0.20;;;6.10;99.90;;;;;;5094590;28;20205;-69
2020/12/06 05:00:12;;;;;;;0.37;0.30;;;6.10;99.90;;;;;;5093894;28;20262;-71
2020/12/06 05:02:41;;;;;;;0.40;0.30;;;6.10;99.90;;;;;;5094013;28;20205;-71
2020/12/06 05:05:08;;;;;;;0.27;0.27;;;6.10;99.90;;;;;;5093724;28;20595;-71
2020/12/06 05:07:35;;;;;;;0.37;0.37;;;6.10;99.90;;;;;;5093661;28;20247;-71
2020/12/06 05:10:03;;;;;;;2.70;0.30;;;6.10;99.90;;;;;;5093396;28;20228;-71
2020/12/06 05:12:30;;;;;;;0.50;0.20;;;6.00;99.90;;;;;;5093636;28;20214;-72
2020/12/06 05:14:56;;;;;;;0.40;0.20;;;6.00;99.90;;;;;;5093376;28;20302;-71
2020/12/06 05:17:23;;;;;;;2.43;0.23;;;6.00;99.90;;;;;;5093777;28;20710;-72
2020/12/06 05:19:49;;;;;;;0.70;0.40;;;6.00;99.90;;;;;;5065072;28;20689;-72
2020/12/06 05:22:15;;;;;;;0.20;0.20;;;5.90;99.90;;;;;;5093708;28;20290;-70
2020/12/06 05:24:43;;;;;;;0.83;0.30;;;5.80;99.90;;;;;;5093865;28;20209;-70
2020/12/06 05:27:10;;;;;;;0.40;0.40;;;5.80;99.90;;;;;;5093121;28;20245;-71
2020/12/06 05:29:42;;;;;;;0.50;0.43;;;5.80;99.90;;;;;;5093477;28;20202;-71
2020/12/06 05:32:09;;;;;;;0.47;0.40;;;5.80;99.90;;;;;;5092962;28;20216;-70
2020/12/06 05:34:39;;;;;;;0.77;0.30;;;5.80;99.90;;;;;;5093313;28;20648;-70
2020/12/06 05:37:06;;;;;;;0.37;0.30;;;5.70;99.90;;;;;;5093114;28;20240;-71
2020/12/06 05:39:33;;;;;;;0.20;0.20;;;5.70;99.90;;;;;;5092395;28;20206;-71
2020/12/06 05:42:00;;;;;;;0.43;0.30;;;5.70;99.90;;;;;;5093150;28;20629;-71
2020/12/06 05:44:27;;;;;;;0.83;0.20;;;5.70;99.90;;;;;;5093051;28;20569;-70
2020/12/06 05:46:54;;;;;;;0.30;0.30;;;5.60;99.90;;;;;;5092859;28;20258;-71
2020/12/06 05:49:23;;;;;;;0.30;0.30;;;5.60;99.90;;;;;;5093328;28;20197;-70
2020/12/06 05:51:50;;;;;;;0.27;0.27;;;5.80;99.90;;;;;;5092321;28;20665;-70
2020/12/06 05:54:22;;;;;;;1.30;0.10;;;5.80;99.90;;;;;;5092780;28;20393;-70
2020/12/06 05:56:51;;;;;;;0.70;0.30;;;5.80;99.90;;;;;;5092728;28;20240;-70
2020/12/06 05:59:21;;;;;;;0.47;0.20;;;5.80;99.90;;;;;;5092342;28;20206;-69
2020/12/06 06:01:50;;;;;;;0.40;0.30;;;5.70;99.90;;;;;;5092995;28;20270;-68
2020/12/06 06:04:20;;;;;;;0.73;0.20;;;5.70;99.90;;;;;;5092751;28;20349;-70
2020/12/06 06:06:50;;;;;;;0.40;0.30;;;5.80;99.90;;;;;;5092190;28;20205;-70
2020/12/06 06:09:19;;;;;;;0.20;0.20;;;5.90;99.90;;;;;;5092928;28;20202;-73
2020/12/06 06:11:55;;;;;;;0.77;0.30;;;6.00;99.90;;;;;;5093015;28;20201;-71
2020/12/06 06:14:23;;;;;;;0.73;0.40;;;6.00;99.90;;;;;;5092192;28;20707;-71
2020/12/06 06:16:51;;;;;;;2.30;0.43;;;6.00;99.90;;;;;;5092195;28;20664;-73
2020/12/06 06:19:22;;;;;;;0.30;0.13;;;6.00;99.90;;;;;;5092127;28;20210;-72
2020/12/06 06:21:49;;;;;;;1.30;0.67;;;6.00;99.90;;;;;;5092017;28;20205;-71
2020/12/06 06:24:20;;;;;;;1.07;0.50;;;6.00;99.90;;;;;;5092356;28;20300;-69
2020/12/06 06:26:49;;;;;;;0.40;0.30;;;5.90;99.90;;;;;;5092461;28;20228;-72
2020/12/06 06:29:17;;;;;;;0.93;0.23;;;5.80;99.90;;;;;;5092892;28;20206;-69
2020/12/06 06:31:46;;;;;;;1.37;0.50;;;5.70;99.90;;;;;;5064512;28;20673;-71
2020/12/06 06:34:14;;;;;;;0.57;0.33;;;5.70;99.90;;;;;;5092732;28;20230;-68
2020/12/06 06:36:45;;;;;;;0.73;0.73;;;5.70;99.90;;;;;;5092380;28;20228;-69
2020/12/06 06:39:17;;;;;;;1.47;0.80;;;5.70;99.90;;;;;;5092287;28;20205;-69
2020/12/06 06:41:56;;;;;;;0.50;0.30;;;5.70;99.90;;;;;;5092205;28;20205;-71
2020/12/06 06:44:23;;;;;;;1.27;0.50;;;5.60;99.90;;;;;;5092213;28;20285;-67
2020/12/06 06:46:51;;;;;;;1.30;0.43;;;5.60;99.90;;;;;;5091678;28;20210;-69
2020/12/06 06:49:19;;;;;;;1.13;0.43;;;5.60;99.90;;;;;;5091867;28;20579;-68
2020/12/06 06:51:52;;;;;;;0.40;0.30;;;5.50;99.90;;;;;;5091079;28;20747;-67
2020/12/06 06:54:26;;;;;;;1.23;0.77;;;5.50;99.90;;;;;;5091844;28;20236;-68
2020/12/06 06:56:53;;;;;;;0.93;0.47;;;5.40;99.90;;;;;;5091306;28;20205;-69
2020/12/06 06:59:35;;;;;;;0.43;0.40;;;5.40;99.90;;;;;;5091784;28;20243;-69
2020/12/06 07:02:02;;;;;;;1.20;0.37;;;5.50;99.90;;;;;;5091495;28;20214;-68
2020/12/06 07:04:30;;;;;;;0.37;0.27;;;5.50;99.90;;;;;;5091434;28;20209;-69
2020/12/06 07:06:56;;;;;;;0.83;0.43;;;5.60;99.90;;;;;;5091038;28;20241;-68
2020/12/06 07:09:24;;;;;;;0.80;0.80;;;5.60;99.90;;;;;;5091192;28;20230;-70
2020/12/06 07:11:53;;;;;;;1.27;0.37;;;5.70;99.90;;;;;;5091469;28;20206;-69
2020/12/06 07:14:22;;;;;;;0.83;0.40;;;5.80;99.90;;;;;;5091413;28;20229;-73
2020/12/06 07:16:49;;;;;;;1.80;0.80;;;5.90;99.90;;;;;;5091159;28;20201;-73
2020/12/06 07:19:15;;;;;;;0.40;0.30;;;5.90;99.90;;;;;;5091031;28;20638;-68
2020/12/06 07:21:43;;;;;;;0.20;0.20;;;5.80;99.90;;;;;;5091816;28;20259;-72
2020/12/06 07:24:09;;;;;;;0.37;0.20;;;5.90;99.90;;;;;;5090679;28;20235;-74
2020/12/06 07:26:36;;;;;;;0.30;0.20;;;5.90;99.90;;;;;;5091137;28;20697;-73
2020/12/06 07:29:02;;;;;;;0.53;0.50;;;5.90;99.90;;;;;;5090762;28;20235;-72
2020/12/06 07:31:29;;;;;;;0.47;0.20;;;6.00;99.90;;;;;;5091034;28;20197;-71
2020/12/06 07:33:55;;;;;;;2.47;0.20;;;6.10;99.90;;;;;;5090545;28;20225;-71
2020/12/06 07:36:22;;;;;;;0.20;0.20;;;6.10;99.90;;;;;;5090797;28;20263;-73
2020/12/06 07:38:49;;;;;;;0.47;0.30;;;6.10;99.90;;;;;;5091042;28;20216;-72
2020/12/06 07:41:16;;;;;;;0.40;0.23;;;6.20;99.90;;;;;;5091050;28;20249;-69
2020/12/06 07:43:42;;;;;;;0.43;0.30;;;6.20;99.90;;;;;;5091392;28;20293;-71
2020/12/06 07:46:13;;;;;;;0.50;0.30;;;6.20;99.90;;;;;;5090645;28;20688;-71
2020/12/06 07:48:40;;;;;;;0.43;0.23;;;6.20;99.90;;;;;;5090715;28;20205;-71
2020/12/06 07:51:06;;;;;;;0.30;0.10;;;6.30;99.90;;;;;;5090486;28;20263;-71
2020/12/06 07:53:47;;;;;;;1.30;0.93;;;6.30;99.90;;;;;;5090754;28;20739;-72
2020/12/06 07:56:19;;;;;;;2.67;0.90;;;6.30;99.90;;;;;;5091297;28;20201;-72
2020/12/06 07:58:54;;;;;;;1.10;0.50;;;6.30;99.90;;;;;;5091041;28;20638;-71
2020/12/06 08:01:21;;;;;;;0.90;0.50;;;6.30;99.90;;;;;;5090061;28;20718;-69
2020/12/06 08:03:52;;;;;;;1.10;0.53;;;6.30;99.90;;;;;;5089937;28;20206;-69
2020/12/06 08:06:19;;;;;;;2.23;1.20;;;6.30;99.90;;;;;;5090770;28;20623;-72
2020/12/06 08:08:49;;;;;;;11.73;5.10;;;6.30;99.90;;;;;;5090619;28;20766;-70
2020/12/06 08:11:17;;;;;;;17.03;7.70;;;6.30;99.90;;;;;;5090694;28;20208;-69
2020/12/06 08:13:50;;;;;;;4.50;3.70;;;6.30;99.90;;;;;;5090924;28;20239;-69
2020/12/06 08:16:17;;;;;;;1.57;1.20;;;6.50;99.90;;;;;;5090090;28;20210;-69
2020/12/06 08:18:44;;;;;;;1.60;1.30;;;6.40;99.90;;;;;;5091048;28;20206;-69
2020/12/06 08:21:10;;;;;;;6.20;4.27;;;6.40;99.90;;;;;;5090341;28;20209;-70
2020/12/06 08:23:39;;;;;;;2.50;1.20;;;6.40;99.90;;;;;;5090793;28;20297;-74
2020/12/06 08:26:06;;;;;;;3.30;2.13;;;6.40;99.90;;;;;;5090201;28;20296;-72
2020/12/06 08:28:33;;;;;;;3.10;0.80;;;6.50;99.90;;;;;;5090431;28;20201;-74
2020/12/06 08:31:00;;;;;;;4.73;3.50;;;6.50;99.90;;;;;;5090003;28;20213;-75
2020/12/06 08:33:28;;;;;;;2.40;1.80;;;6.50;99.90;;;;;;5090265;28;20229;-73
2020/12/06 08:35:56;;;;;;;3.47;1.60;;;6.50;99.90;;;;;;5090171;28;20334;-71
2020/12/06 08:38:24;;;;;;;1.90;1.17;;;6.50;99.90;;;;;;5086913;28;20228;-74
2020/12/06 08:41:02;;;;;;;6.50;3.60;;;6.50;99.90;;;;;;5068733;28;20208;-74
2020/12/06 08:43:43;;;;;;;4.03;3.07;;;6.50;99.90;;;;;;5088987;28;20209;-74
2020/12/06 08:46:11;;;;;;;2.63;1.50;;;6.60;99.90;;;;;;5078969;28;20205;-72
2020/12/06 08:48:38;;;;;;;1.00;0.83;;;7.00;99.90;;;;;;5078209;28;20202;-74
2020/12/06 08:51:04;;;;;;;3.37;2.20;;;7.80;99.90;;;;;;5081520;28;20726;-71
2020/12/06 08:53:43;;;;;;;2.20;1.47;;;8.30;99.90;;;;;;5076355;28;20283;-70
2020/12/06 08:56:27;;;;;;;3.23;1.30;;;9.00;99.90;;;;;;5070727;28;20201;-69
2020/12/06 08:58:56;;;;;;;2.47;1.23;;;9.10;99.90;;;;;;5073108;28;20206;-73
2020/12/06 09:01:22;;;;;;;3.35;2.55;;;9.80;99.90;;;;;;5078646;28;20920;-68
2020/12/06 09:03:49;;;;;;;0.97;0.77;;;8.90;99.90;;;;;;5055850;28;20689;-69
2020/12/06 09:06:16;;;;;;;2.43;1.10;;;8.80;99.90;;;;;;5065502;28;20331;-68
2020/12/06 09:08:42;;;;;;;0.87;0.80;;;9.10;99.90;;;;;;5074275;28;20234;-69
2020/12/06 09:11:14;;;;;;;2.37;0.73;;;9.70;99.90;;;;;;5077480;28;20275;-69
2020/12/06 09:13:40;;;;;;;0.37;0.30;;;9.50;99.90;;;;;;5070436;28;20257;-70
2020/12/06 09:16:08;;;;;;;1.47;0.80;;;8.90;99.90;;;;;;5079365;28;20213;-69
2020/12/06 09:18:35;;;;;;;0.40;0.40;;;8.60;99.90;;;;;;5085514;28;20305;-68
2020/12/06 09:21:01;;;;;;;0.90;0.53;;;8.20;99.90;;;;;;5090851;28;20241;-68
2020/12/06 09:23:28;;;;;;;1.27;1.07;;;7.90;99.90;;;;;;5092745;28;20263;-70
2020/12/06 09:25:54;;;;;;;1.67;1.50;;;7.70;99.90;;;;;;5090992;28;20205;-67
2020/12/06 09:28:20;;;;;;;1.20;1.03;;;7.70;99.90;;;;;;5092334;28;20201;-69
2020/12/06 09:30:50;;;;;;;1.40;0.60;;;7.60;99.90;;;;;;5092281;28;20680;-69
2020/12/06 09:33:17;;;;;;;2.73;0.60;;;7.40;99.90;;;;;;5091313;28;20257;-69
2020/12/06 09:35:44;;;;;;;2.07;0.30;;;7.20;99.90;;;;;;5092749;28;20548;-69
2020/12/06 09:38:10;;;;;;;2.30;1.13;;;7.20;99.90;;;;;;5090490;28;20205;-70
2020/12/06 09:40:36;;;;;;;2.07;0.67;;;7.20;99.90;;;;;;5092611;28;20213;-68
2020/12/06 09:43:03;;;;;;;4.60;2.00;;;7.20;99.90;;;;;;5091405;28;20677;-69
2020/12/06 09:45:29;;;;;;;0.60;0.60;;;7.10;99.90;;;;;;5092950;28;20209;-69
2020/12/06 09:47:56;;;;;;;2.40;0.60;;;7.20;99.90;;;;;;5092983;28;20206;-68
2020/12/06 09:50:23;;;;;;;1.90;0.60;;;7.20;99.90;;;;;;5092946;28;20231;-69
2020/12/06 09:52:49;;;;;;;1.10;0.70;;;7.20;99.90;;;;;;5093019;28;20213;-68
2020/12/06 09:55:16;;;;;;;1.07;0.73;;;7.40;99.90;;;;;;5092980;28;20649;-67
2020/12/06 09:57:42;;;;;;;2.77;1.40;;;7.40;99.90;;;;;;5093007;28;20753;-70
2020/12/06 10:00:09;;;;;;;2.03;1.30;;;7.40;99.90;;;;;;5092764;28;20206;-70
2020/12/06 10:02:35;;;;;;;2.77;1.60;;;7.30;99.90;;;;;;5092604;28;20239;-68
2020/12/06 10:05:02;;;;;;;5.07;2.70;;;7.10;99.90;;;;;;5075516;28;20261;-68
2020/12/06 10:07:29;;;;;;;3.97;2.10;;;7.30;99.90;;;;;;5073302;28;20259;-69
2020/12/06 10:09:55;;;;;;;2.30;1.73;;;7.60;99.90;;;;;;5089350;28;20259;-69
2020/12/06 10:12:22;;;;;;;1.60;1.10;;;8.00;99.90;;;;;;5084203;28;20248;-69
2020/12/06 10:14:48;;;;;;;1.63;0.83;;;9.30;99.90;;;;;;5089154;28;20580;-70
2020/12/06 10:17:15;;;;;;;1.30;0.63;;;9.50;99.90;;;;;;5087384;28;20206;-69
2020/12/06 10:19:41;;;;;;;1.30;0.80;;;9.00;99.90;;;;;;5087987;28;20255;-67
2020/12/06 10:22:08;;;;;;;1.03;0.50;;;8.40;99.90;;;;;;5085326;28;20209;-69
2020/12/06 10:24:35;;;;;;;2.60;0.50;;;8.10;99.90;;;;;;5081167;28;20669;-69
2020/12/06 10:27:01;;;;;;;3.03;0.80;;;7.70;99.90;;;;;;5086044;28;20209;-69
2020/12/06 10:29:28;;;;;;;1.37;1.20;;;7.40;99.90;;;;;;5081511;28;20624;-67
2020/12/06 10:31:55;;;;;;;2.23;1.20;;;7.60;99.90;;;;;;5085734;28;20742;-69
2020/12/06 10:34:22;;;;;;;2.13;1.47;;;7.70;99.90;;;;;;5073056;28;20301;-69
2020/12/06 10:36:50;;;;;;;0.63;0.40;;;7.90;99.90;;;;;;5084661;28;20259;-69
2020/12/06 10:39:17;;;;;;;1.90;1.27;;;8.40;99.90;;;;;;5079273;28;20260;-69
2020/12/06 10:41:47;;;;;;;1.87;0.60;;;8.40;99.90;;;;;;5082210;28;20201;-69
2020/12/06 10:44:13;;;;;;;1.43;0.73;;;8.50;99.90;;;;;;5092307;28;20206;-69
2020/12/06 10:46:39;;;;;;;1.53;1.07;;;8.40;99.90;;;;;;5090988;28;20210;-68
2020/12/06 10:49:06;;;;;;;0.67;0.60;;;8.40;99.90;;;;;;5088782;28;20262;-68
2020/12/06 10:51:33;;;;;;;2.23;1.20;;;8.60;99.90;;;;;;5090419;28;20206;-69
2020/12/06 10:53:59;;;;;;;1.07;0.77;;;8.80;99.90;;;;;;5087091;28;20233;-69
2020/12/06 10:56:26;;;;;;;1.07;0.87;;;9.10;99.90;;;;;;5088591;28;20259;-69
2020/12/06 10:58:55;;;;;;;1.40;0.90;;;9.20;99.90;;;;;;5083051;28;20624;-69
2020/12/06 11:01:25;;;;;;;1.80;1.00;;;9.50;99.90;;;;;;5088737;28;20233;-68
2020/12/06 11:03:52;;;;;;;1.10;0.63;;;9.60;99.90;;;;;;5083100;28;20202;-70
2020/12/06 11:06:22;;;;;;;1.97;0.70;;;9.40;99.90;;;;;;5087210;28;20665;-69
2020/12/06 11:08:49;;;;;;;2.00;0.93;;;8.90;99.90;;;;;;5079988;28;20234;-69
2020/12/06 11:11:16;;;;;;;1.50;0.90;;;8.90;99.90;;;;;;5081204;28;20255;-66
2020/12/06 11:13:43;;;;;;;3.27;0.97;;;9.30;99.90;;;;;;5082025;28;20268;-70
2020/12/06 11:16:10;;;;;;;1.23;1.03;;;9.30;99.90;;;;;;5082227;28;20210;-70
2020/12/06 11:18:37;;;;;;;1.63;0.80;;;9.00;99.90;;;;;;5078845;28;20207;-67
2020/12/06 11:21:03;;;;;;;1.20;0.60;;;9.00;99.90;;;;;;5074008;28;20276;-67
2020/12/06 11:23:29;;;;;;;1.33;0.80;;;9.10;99.90;;;;;;5081144;28;20262;-68
2020/12/06 11:25:57;;;;;;;2.13;0.60;;;9.00;99.90;;;;;;5077017;28;20282;-66
2020/12/06 11:28:23;;;;;;;1.17;0.60;;;8.90;99.90;;;;;;5082579;28;20201;-67
2020/12/06 11:30:49;;;;;;;1.93;0.70;;;9.00;99.90;;;;;;5076070;28;20627;-70
2020/12/06 11:33:17;;;;;;;1.80;0.80;;;9.40;99.90;;;;;;5080436;28;20202;-69
2020/12/06 11:35:43;;;;;;;3.30;1.03;;;9.50;99.90;;;;;;5066441;28;20206;-67
2020/12/06 11:38:10;;;;;;;3.10;1.00;;;9.40;99.90;;;;;;5077137;28;20669;-70
2020/12/06 11:40:37;;;;;;;4.53;0.83;;;9.20;99.90;;;;;;5075273;28;20206;-69
2020/12/06 11:43:03;;;;;;;1.47;0.80;;;8.70;99.90;;;;;;5085008;28;20739;-69
2020/12/06 11:45:29;;;;;;;1.30;0.70;;;8.60;99.90;;;;;;5089687;28;20202;-70
2020/12/06 11:47:56;;;;;;;1.80;0.70;;;9.00;99.90;;;;;;5068946;28;20237;-70
2020/12/06 11:50:23;;;;;;;2.57;0.73;;;9.30;99.90;;;;;;5079487;28;20260;-69
2020/12/06 11:52:50;;;;;;;0.77;0.53;;;9.70;99.90;;;;;;5088617;28;20638;-70
2020/12/06 11:55:16;;;;;;;3.70;0.97;;;9.50;99.90;;;;;;5082855;28;20241;-70
2020/12/06 11:57:43;;;;;;;2.37;0.70;;;9.60;99.90;;;;;;5070860;28;20579;-70
2020/12/06 12:00:09;;;;;;;1.30;0.50;;;9.50;99.90;;;;;;5073776;28;20210;-70
2020/12/06 12:02:36;;;;;;;1.03;0.93;;;9.20;99.90;;;;;;5078264;28;20636;-71
2020/12/06 12:05:02;;;;;;;2.00;1.10;;;9.00;99.90;;;;;;5081277;28;20734;-69
2020/12/06 12:07:31;;;;;;;1.47;1.07;;;9.10;99.90;;;;;;5064291;28;20620;-71
2020/12/06 12:09:57;;;;;;;1.67;1.30;;;9.20;99.90;;;;;;5081864;28;20209;-70
2020/12/06 12:12:24;;;;;;;1.70;1.20;;;9.30;99.90;;;;;;5081879;28;20210;-71
2020/12/06 12:14:51;;;;;;;0.90;0.80;;;9.50;99.90;;;;;;5086578;28;20272;-68
2020/12/06 12:17:17;;;;;;;1.20;0.70;;;9.40;99.90;;;;;;5075929;28;20241;-70
2020/12/06 12:19:44;;;;;;;4.37;1.43;;;9.20;99.90;;;;;;5086107;28;20251;-70
2020/12/06 12:22:10;;;;;;;3.03;1.33;;;9.10;99.90;;;;;;5085265;28;20267;-69
2020/12/06 12:24:37;;;;;;;6.03;1.40;;;8.90;99.90;;;;;;5065104;28;20218;-69
2020/12/06 12:27:04;;;;;;;2.40;1.63;;;8.80;99.90;;;;;;5070998;28;20742;-71
2020/12/06 12:29:31;;;;;;;3.13;1.30;;;8.70;99.90;;;;;;5076514;28;20206;-69
2020/12/06 12:31:57;;;;;;;2.60;1.00;;;8.70;99.90;;;;;;5086839;28;20228;-70
2020/12/06 12:34:24;;;;;;;3.50;1.57;;;8.90;99.90;;;;;;5076380;28;20315;-71
2020/12/06 12:36:51;;;;;;;2.10;0.80;;;8.90;99.90;;;;;;5065258;28;20233;-70
2020/12/06 12:39:17;;;;;;;3.80;0.90;;;8.80;99.90;;;;;;5078363;28;20206;-70
2020/12/06 12:41:44;;;;;;;2.83;1.40;;;8.90;99.90;;;;;;5078432;28;20224;-71
2020/12/06 12:44:11;;;;;;;1.10;1.00;;;8.90;99.90;;;;;;5076627;28;20230;-70
2020/12/06 12:46:37;;;;;;;2.60;1.43;;;8.90;99.90;;;;;;5076476;28;20250;-71
2020/12/06 12:49:05;;;;;;;28.07;15.03;;;9.10;99.90;;;;;;5079678;28;20290;-70
2020/12/06 12:51:31;;;;;;;1.80;1.00;;;9.10;99.90;;;;;;5083500;28;20201;-70
2020/12/06 12:53:58;;;;;;;2.17;1.40;;;9.10;99.90;;;;;;5088189;28;20612;-71
2020/12/06 12:56:25;;;;;;;21.97;13.07;;;9.20;99.90;;;;;;5076099;28;20214;-71
2020/12/06 12:58:52;;;;;;;3.53;2.33;;;9.30;99.90;;;;;;5075554;28;20260;-72